createdAt,value
2023-01-23T00:02:05.811Z,3.02
2023-01-23T00:04:32.272Z,2.94
2023-01-23T00:06:58.678Z,3.02
2023-01-23T00:09:25.029Z,3.05
2023-01-23T00:11:51.362Z,3.02
2023-01-23T00:14:18.322Z,3.09
2023-01-23T00:16:44.721Z,3.15
2023-01-23T00:19:11.339Z,3.14
2023-01-23T00:21:37.740Z,3.06
2023-01-23T00:24:04.503Z,2.89
2023-01-23T00:26:32.950Z,2.87
2023-01-23T00:28:59.945Z,2.91
2023-01-23T00:31:31.942Z,2.81
2023-01-23T00:34:02.392Z,2.86
2023-01-23T00:36:31.650Z,2.90
2023-01-23T00:38:58.093Z,2.82
2023-01-23T00:41:24.571Z,2.90
2023-01-23T00:43:52.183Z,3.00
2023-01-23T00:46:22.542Z,2.84
2023-01-23T00:48:49.395Z,2.62
2023-01-23T00:51:15.944Z,2.64
2023-01-23T00:53:42.875Z,2.65
2023-01-23T00:56:09.321Z,2.64
2023-01-23T00:58:35.842Z,2.65
2023-01-23T01:01:02.271Z,2.56
2023-01-23T01:03:28.692Z,2.56
2023-01-23T01:05:55.198Z,2.49
2023-01-23T01:08:21.614Z,2.50
2023-01-23T01:10:48.047Z,2.61
2023-01-23T01:13:16.825Z,2.64
2023-01-23T01:15:43.256Z,2.86
2023-01-23T01:18:09.735Z,2.81
2023-01-23T01:20:36.118Z,3.10
2023-01-23T01:23:02.977Z,3.07
2023-01-23T01:25:30.384Z,2.89
2023-01-23T01:27:56.722Z,2.92
2023-01-23T01:30:25.696Z,2.92
2023-01-23T01:32:52.083Z,2.57
2023-01-23T01:35:18.574Z,2.77
2023-01-23T01:37:45.033Z,2.63
2023-01-23T01:40:15.479Z,2.60
2023-01-23T01:42:44.969Z,2.61
2023-01-23T01:45:54.740Z,2.51
2023-01-23T01:48:25.535Z,2.65
2023-01-23T01:50:53.284Z,2.76
2023-01-23T01:53:25.066Z,2.49
2023-01-23T01:55:51.535Z,2.60
2023-01-23T01:58:18.373Z,2.54
2023-01-23T02:00:44.978Z,2.49
2023-01-23T02:03:11.437Z,2.58
2023-01-23T02:05:44.791Z,2.56
2023-01-23T02:08:21.560Z,2.43
2023-01-23T02:10:48.548Z,2.48
2023-01-23T02:13:28.425Z,2.54
2023-01-23T02:15:54.867Z,2.39
2023-01-23T02:18:21.957Z,2.38
2023-01-23T02:20:51.917Z,2.30
2023-01-23T02:23:47.693Z,2.30
2023-01-23T02:26:18.106Z,2.33
2023-01-23T02:28:47.746Z,2.47
2023-01-23T02:31:15.383Z,2.42
2023-01-23T02:33:53.750Z,2.54
2023-01-23T02:36:23.946Z,2.55
2023-01-23T02:38:55.701Z,2.59
2023-01-23T02:41:35.947Z,2.42
2023-01-23T02:44:08.993Z,2.63
2023-01-23T02:46:35.374Z,2.63
2023-01-23T02:49:02.703Z,2.59
2023-01-23T02:51:29.094Z,2.53
2023-01-23T02:53:55.522Z,2.54
2023-01-23T02:56:21.946Z,2.64
2023-01-23T02:59:07.091Z,2.62
2023-01-23T03:01:35.664Z,2.63
2023-01-23T03:04:03.586Z,2.34
2023-01-23T03:06:36.047Z,2.55
2023-01-23T03:09:05.576Z,2.49
2023-01-23T03:11:32.354Z,2.48
2023-01-23T03:13:58.747Z,2.57
2023-01-23T03:16:25.240Z,2.61
2023-01-23T03:18:54.759Z,2.56
2023-01-23T03:21:21.572Z,2.59
2023-01-23T03:23:48.285Z,2.68
2023-01-23T03:26:15.443Z,2.66
2023-01-23T03:29:00.473Z,2.61
2023-01-23T03:31:26.925Z,2.65
2023-01-23T03:33:53.444Z,2.70
2023-01-23T03:36:20.984Z,2.72
2023-01-23T03:39:05.794Z,2.79
2023-01-23T03:41:32.249Z,2.59
2023-01-23T03:43:58.590Z,2.46
2023-01-23T03:46:25.065Z,2.66
2023-01-23T03:48:51.516Z,2.48
2023-01-23T03:51:18.006Z,2.56
2023-01-23T03:53:44.448Z,2.60
2023-01-23T03:56:10.901Z,2.55
2023-01-23T03:58:37.247Z,2.55
2023-01-23T04:01:06.883Z,2.46
2023-01-23T04:03:33.313Z,2.29
2023-01-23T04:06:00.013Z,2.26
2023-01-23T04:08:26.531Z,2.36
2023-01-23T04:11:01.471Z,2.42
2023-01-23T04:13:27.871Z,2.28
2023-01-23T04:15:54.349Z,2.54
2023-01-23T04:18:20.692Z,2.53
2023-01-23T04:20:47.629Z,2.56
2023-01-23T04:23:14.040Z,2.51
2023-01-23T04:25:40.437Z,2.49
2023-01-23T04:28:06.837Z,2.38
2023-01-23T04:30:33.367Z,2.54
2023-01-23T04:32:59.925Z,2.48
2023-01-23T04:35:26.442Z,2.50
2023-01-23T04:37:52.858Z,2.64
2023-01-23T04:40:19.891Z,2.64
2023-01-23T04:42:46.445Z,2.68
2023-01-23T04:45:12.865Z,2.75
2023-01-23T04:47:39.426Z,2.50
2023-01-23T04:50:06.077Z,2.59
2023-01-23T04:52:32.414Z,2.68
2023-01-23T04:54:58.890Z,2.55
2023-01-23T04:57:25.291Z,2.53
2023-01-23T04:59:51.674Z,2.65
2023-01-23T05:02:18.060Z,2.65
2023-01-23T05:04:44.924Z,2.55
2023-01-23T05:07:12.287Z,2.72
2023-01-23T05:09:39.413Z,2.63
2023-01-23T05:12:06.418Z,2.81
2023-01-23T05:14:33.052Z,2.69
2023-01-23T05:16:59.508Z,2.50
2023-01-23T05:19:25.876Z,2.60
2023-01-23T05:21:52.251Z,2.48
2023-01-23T05:24:18.589Z,2.59
2023-01-23T05:26:45.038Z,2.42
2023-01-23T05:29:11.513Z,2.41
2023-01-23T05:31:38.071Z,2.63
2023-01-23T05:34:04.599Z,2.47
2023-01-23T05:36:31.049Z,2.51
2023-01-23T05:38:57.661Z,2.60
2023-01-23T05:41:25.682Z,2.74
2023-01-23T05:43:52.141Z,2.63
2023-01-23T05:46:18.566Z,2.52
2023-01-23T05:48:49.138Z,2.66
2023-01-23T05:51:17.160Z,2.65
2023-01-23T05:53:43.815Z,2.60
2023-01-23T05:56:10.389Z,2.52
2023-01-23T05:58:36.774Z,2.48
2023-01-23T06:01:04.118Z,2.42
2023-01-23T06:03:30.762Z,2.48
2023-01-23T06:05:57.128Z,2.58
2023-01-23T06:08:23.579Z,2.45
2023-01-23T06:10:50.754Z,2.47
2023-01-23T06:13:17.169Z,2.55
2023-01-23T06:15:43.615Z,2.68
2023-01-23T06:18:10.134Z,2.75
2023-01-23T06:20:36.518Z,2.59
2023-01-23T06:23:03.185Z,2.71
2023-01-23T06:25:29.538Z,2.72
2023-01-23T06:27:55.874Z,2.85
2023-01-23T06:30:22.382Z,2.77
2023-01-23T06:32:49.030Z,2.67
2023-01-23T06:35:15.531Z,2.57
2023-01-23T06:37:42.247Z,2.77
2023-01-23T06:40:13.143Z,2.75
2023-01-23T06:42:43.091Z,2.80
2023-01-23T06:45:10.723Z,2.97
2023-01-23T06:47:38.025Z,2.70
2023-01-23T06:50:05.059Z,2.87
2023-01-23T06:52:31.531Z,2.71
2023-01-23T06:54:57.903Z,2.67
2023-01-23T06:57:24.301Z,2.88
2023-01-23T06:59:50.681Z,2.83
2023-01-23T07:02:17.094Z,2.82
2023-01-23T07:04:43.461Z,2.77
2023-01-23T07:07:09.966Z,2.88
2023-01-23T07:09:36.494Z,2.86
2023-01-23T07:12:03.596Z,2.72
2023-01-23T07:14:29.954Z,2.72
2023-01-23T07:16:56.403Z,2.71
2023-01-23T07:19:22.814Z,2.84
2023-01-23T07:21:49.353Z,2.84
2023-01-23T07:24:15.839Z,2.90
2023-01-23T07:26:42.213Z,2.93
2023-01-23T07:29:11.578Z,2.94
2023-01-23T07:31:38.220Z,2.87
2023-01-23T07:34:04.660Z,2.86
2023-01-23T07:36:31.093Z,2.87
2023-01-23T07:38:58.956Z,2.90
2023-01-23T07:41:25.715Z,2.97
2023-01-23T07:43:52.286Z,2.94
2023-01-23T07:46:18.874Z,2.81
2023-01-23T07:48:45.346Z,2.83
2023-01-23T07:51:11.920Z,2.79
2023-01-23T07:53:38.478Z,2.95
2023-01-23T07:56:05.913Z,2.80
2023-01-23T07:58:32.715Z,2.87
2023-01-23T08:00:59.194Z,2.89
2023-01-23T08:03:28.884Z,2.90
2023-01-23T08:05:55.310Z,2.91
2023-01-23T08:08:21.698Z,2.86
2023-01-23T08:10:48.110Z,2.91
2023-01-23T08:13:14.583Z,2.83
2023-01-23T08:15:40.984Z,2.96
2023-01-23T08:18:07.450Z,2.78
2023-01-23T08:20:34.014Z,2.83
2023-01-23T08:23:02.043Z,2.99
2023-01-23T08:25:28.467Z,2.83
2023-01-23T08:27:54.813Z,2.81
2023-01-23T08:30:21.633Z,2.79
2023-01-23T08:32:48.219Z,3.01
2023-01-23T08:35:15.182Z,2.89
2023-01-23T08:37:42.293Z,2.97
2023-01-23T08:40:09.532Z,2.72
2023-01-23T08:42:36.013Z,2.74
2023-01-23T08:45:02.374Z,2.85
2023-01-23T08:47:28.872Z,2.92
2023-01-23T08:49:55.276Z,2.89
2023-01-23T08:52:21.611Z,2.86
2023-01-23T08:54:48.027Z,2.77
2023-01-23T08:57:14.449Z,2.95
2023-01-23T08:59:42.611Z,2.89
2023-01-23T09:02:12.643Z,2.93
2023-01-23T09:04:39.261Z,3.09
2023-01-23T09:07:05.625Z,3.16
2023-01-23T09:09:32.061Z,3.12
2023-01-23T09:11:58.453Z,3.24
2023-01-23T09:14:24.815Z,3.20
2023-01-23T09:16:51.365Z,3.16
2023-01-23T09:19:17.777Z,3.15
2023-01-23T09:21:44.558Z,3.15
2023-01-23T09:24:10.958Z,3.16
2023-01-23T09:26:37.611Z,2.96
2023-01-23T09:29:04.009Z,3.22
2023-01-23T09:31:30.818Z,3.10
2023-01-23T09:33:57.686Z,3.20
2023-01-23T09:36:41.299Z,3.18
2023-01-23T09:39:07.909Z,3.13
2023-01-23T09:41:34.401Z,3.05
2023-01-23T09:44:07.361Z,3.24
2023-01-23T09:47:02.445Z,3.28
2023-01-23T09:49:41.335Z,3.33
2023-01-23T09:52:13.128Z,3.40
2023-01-23T09:54:48.890Z,3.38
2023-01-23T09:57:15.242Z,3.34
2023-01-23T10:00:00.206Z,3.52
2023-01-23T10:02:28.209Z,3.56
2023-01-23T10:04:58.060Z,3.50
2023-01-23T10:07:43.810Z,3.41
2023-01-23T10:10:45.404Z,3.49
2023-01-23T10:13:48.530Z,3.40
2023-01-23T10:16:14.877Z,3.53
2023-01-23T10:18:54.282Z,3.52
2023-01-23T10:21:38.901Z,3.52
2023-01-23T10:24:26.983Z,3.52
2023-01-23T10:26:58.294Z,3.58
2023-01-23T10:29:38.831Z,3.52
2023-01-23T10:32:20.877Z,3.36
2023-01-23T10:34:55.124Z,3.61
2023-01-23T10:37:40.549Z,3.40
2023-01-23T10:40:12.592Z,3.41
2023-01-23T10:42:38.968Z,3.59
2023-01-23T10:45:06.971Z,3.56
2023-01-23T10:47:44.056Z,3.58
2023-01-23T10:50:11.528Z,3.60
2023-01-23T10:52:43.338Z,3.80
2023-01-23T10:55:19.639Z,3.86
2023-01-23T10:57:49.012Z,3.69
2023-01-23T11:00:27.567Z,3.66
2023-01-23T11:02:54.075Z,3.92
2023-01-23T11:05:46.905Z,4.01
2023-01-23T11:08:25.994Z,3.88
2023-01-23T11:10:52.947Z,3.71
2023-01-23T11:13:29.718Z,3.78
2023-01-23T11:15:56.910Z,3.94
2023-01-23T11:18:33.818Z,3.65
2023-01-23T11:21:01.251Z,3.92
2023-01-23T11:23:29.286Z,3.82
2023-01-23T11:25:55.883Z,3.83
2023-01-23T11:28:47.655Z,3.95
2023-01-23T11:31:18.831Z,3.71
2023-01-23T11:33:58.491Z,3.79
2023-01-23T11:36:38.400Z,3.86
2023-01-23T11:39:26.629Z,3.83
2023-01-23T11:41:53.070Z,3.71
2023-01-23T11:44:23.071Z,3.60
2023-01-23T11:46:49.848Z,3.81
2023-01-23T11:49:25.149Z,3.72
2023-01-23T11:52:15.844Z,3.93
2023-01-23T11:55:01.075Z,4.00
2023-01-23T11:57:48.401Z,3.96
2023-01-23T12:00:24.642Z,3.79
2023-01-23T12:03:00.163Z,3.84
2023-01-23T12:06:03.522Z,3.90
2023-01-23T12:08:43.581Z,3.95
2023-01-23T12:11:22.199Z,4.00
2023-01-23T12:14:26.361Z,4.07
2023-01-23T12:17:10.602Z,4.31
2023-01-23T12:20:15.533Z,4.11
2023-01-23T12:23:09.906Z,4.04
2023-01-23T12:25:40.333Z,4.04
2023-01-23T12:28:25.332Z,4.14
2023-01-23T12:31:08.793Z,4.19
2023-01-23T12:33:58.402Z,4.18
2023-01-23T12:36:30.906Z,4.43
2023-01-23T12:39:16.072Z,4.27
2023-01-23T12:42:03.947Z,4.41
2023-01-23T12:44:42.634Z,4.43
2023-01-23T12:47:17.157Z,4.39
2023-01-23T12:50:14.819Z,4.28
2023-01-23T12:52:49.034Z,4.32
2023-01-23T12:55:25.901Z,4.30
2023-01-23T12:58:08.153Z,4.15
2023-01-23T13:00:53.868Z,4.34
2023-01-23T13:03:37.305Z,4.26
2023-01-23T13:06:22.713Z,4.28
2023-01-23T13:09:17.483Z,4.31
2023-01-23T13:12:21.715Z,4.32
2023-01-23T13:15:12.699Z,4.39
2023-01-23T13:17:38.937Z,4.34
2023-01-23T13:20:37.374Z,4.25
2023-01-23T13:23:35.223Z,4.14
2023-01-23T13:26:17.114Z,4.10
2023-01-23T13:28:48.298Z,4.21
2023-01-23T13:31:40.629Z,4.30
2023-01-23T13:34:16.360Z,4.27
2023-01-23T13:36:45.187Z,4.47
2023-01-23T13:39:17.564Z,4.42
2023-01-23T13:41:49.231Z,4.25
2023-01-23T13:44:35.737Z,4.25
2023-01-23T14:21:52.155Z,4.48
2023-01-23T14:24:24.258Z,4.49
2023-01-23T14:26:53.945Z,4.61
2023-01-23T14:29:23.557Z,4.60
2023-01-23T14:31:51.334Z,4.79
2023-01-23T14:34:23.613Z,4.82
2023-01-23T14:37:04.140Z,4.82
2023-01-23T14:39:33.262Z,5.17
2023-01-23T14:42:02.662Z,4.86
2023-01-23T14:44:45.492Z,4.98
2023-01-23T14:47:21.557Z,5.34
2023-01-23T14:49:48.181Z,5.09
2023-01-23T14:52:24.387Z,5.02
2023-01-23T14:54:54.422Z,5.11
2023-01-23T14:57:23.803Z,5.12
2023-01-23T14:59:54.684Z,4.80
2023-01-23T15:02:33.890Z,4.76
2023-01-23T15:05:07.341Z,4.77
2023-01-23T15:07:35.181Z,4.97
2023-01-23T15:10:02.329Z,5.24
2023-01-23T15:12:28.797Z,5.27
2023-01-23T15:14:56.404Z,5.21
2023-01-23T15:17:23.026Z,5.00
2023-01-23T15:19:51.808Z,4.83
2023-01-23T15:22:21.894Z,4.70
2023-01-23T15:24:48.507Z,4.61
2023-01-23T15:27:32.159Z,4.69
2023-01-23T15:30:30.412Z,4.54
2023-01-23T15:32:58.004Z,4.41
2023-01-23T15:35:24.937Z,4.40
2023-01-23T15:37:55.928Z,4.33
2023-01-23T15:40:27.588Z,4.21
2023-01-23T15:43:03.727Z,4.08
2023-01-23T15:45:30.118Z,3.92
2023-01-23T15:47:56.735Z,3.98
2023-01-23T15:50:23.483Z,3.88
2023-01-23T15:52:52.374Z,3.79
2023-01-23T15:55:19.870Z,3.78
2023-01-23T15:57:46.550Z,3.81
2023-01-23T16:00:17.845Z,3.70
2023-01-23T16:02:55.646Z,3.79
2023-01-23T16:05:26.992Z,3.73
2023-01-23T16:07:54.591Z,3.77
2023-01-23T16:10:23.711Z,3.71
2023-01-23T16:12:52.579Z,3.80
2023-01-23T16:15:20.367Z,3.60
2023-01-23T16:17:47.588Z,3.73
2023-01-23T16:20:28.640Z,3.85
2023-01-23T16:23:01.852Z,3.78
2023-01-23T16:25:44.433Z,3.72
2023-01-23T16:28:14.834Z,3.69
2023-01-23T16:30:41.391Z,3.61
2023-01-23T16:33:08.029Z,3.59
2023-01-23T16:35:34.442Z,3.58
2023-01-23T16:38:01.105Z,3.41
2023-01-23T16:40:30.469Z,3.43
2023-01-23T16:42:57.308Z,3.31
2023-01-23T16:45:28.479Z,3.33
2023-01-23T16:47:55.573Z,3.27
2023-01-23T16:50:29.382Z,3.09
2023-01-23T16:53:06.634Z,3.13
2023-01-23T16:55:36.594Z,3.37
2023-01-23T16:58:05.176Z,3.10
2023-01-23T17:00:35.070Z,3.25
2023-01-23T17:03:07.737Z,3.25
2023-01-23T17:05:34.134Z,3.22
2023-01-23T17:08:00.672Z,3.20
2023-01-23T17:10:37.835Z,3.19
2023-01-23T17:13:11.030Z,3.20
2023-01-23T17:15:37.724Z,3.00
2023-01-23T17:18:04.413Z,2.95
2023-01-23T17:20:30.787Z,3.03
2023-01-23T17:22:57.291Z,2.95
2023-01-23T17:25:26.558Z,3.09
2023-01-23T17:28:11.617Z,3.01
2023-01-23T17:30:39.908Z,2.88
2023-01-23T17:33:13.513Z,2.86
2023-01-23T17:35:39.961Z,2.94
2023-01-23T17:38:06.908Z,2.86
2023-01-23T17:40:33.655Z,2.84
2023-01-23T17:43:00.285Z,2.82
2023-01-23T17:45:28.201Z,2.85
2023-01-23T17:47:55.647Z,2.82
2023-01-23T17:50:24.979Z,2.97
2023-01-23T17:52:53.069Z,3.10
2023-01-23T17:55:28.250Z,2.85
2023-01-23T17:57:54.888Z,2.92
2023-01-23T18:00:21.926Z,2.84
2023-01-23T18:02:58.937Z,2.71
2023-01-23T18:05:25.744Z,2.68
2023-01-23T18:07:54.471Z,2.89
2023-01-23T18:10:22.070Z,2.72
2023-01-23T18:13:10.655Z,2.77
2023-01-23T18:15:58.885Z,2.70
2023-01-23T18:18:37.111Z,2.94
2023-01-23T18:21:06.350Z,2.67
2023-01-23T18:23:37.099Z,2.73
2023-01-23T18:26:18.687Z,2.44
2023-01-23T18:28:59.524Z,2.41
2023-01-23T18:32:04.542Z,2.30
2023-01-23T18:34:55.342Z,2.22
2023-01-23T18:37:30.632Z,2.43
2023-01-23T18:40:21.299Z,2.50
2023-01-23T18:43:21.551Z,2.24
2023-01-23T18:45:48.258Z,2.20
2023-01-23T18:48:25.015Z,2.04
2023-01-23T18:51:10.375Z,1.97
2023-01-23T18:54:01.707Z,1.95
2023-01-23T18:56:34.289Z,1.99
2023-01-23T18:59:26.122Z,1.98
2023-01-23T19:02:15.789Z,2.11
2023-01-23T19:05:12.314Z,2.29
2023-01-23T19:07:39.221Z,2.27
2023-01-23T19:10:07.737Z,2.42
2023-01-23T19:12:40.750Z,2.28
2023-01-23T19:15:07.161Z,2.32
2023-01-23T19:17:37.024Z,2.06
2023-01-23T19:20:24.689Z,1.99
2023-01-23T19:23:06.241Z,2.24
2023-01-23T19:25:32.941Z,1.63
2023-01-23T19:28:00.679Z,1.58
2023-01-23T19:30:27.478Z,1.24
2023-01-23T19:32:53.966Z,1.18
2023-01-23T19:35:20.965Z,1.07
2023-01-23T19:37:47.714Z,1.09
2023-01-23T19:40:16.039Z,1.02
2023-01-23T19:42:54.351Z,0.75
2023-01-23T19:45:25.317Z,0.93
2023-01-23T19:47:53.284Z,0.88
2023-01-23T19:50:21.392Z,0.99
2023-01-23T19:52:48.804Z,0.73
2023-01-23T19:55:27.209Z,0.84
2023-01-23T19:57:56.055Z,0.93
2023-01-23T20:00:28.022Z,0.71
2023-01-23T20:02:54.449Z,0.78
2023-01-23T20:05:22.162Z,0.78
2023-01-23T20:07:52.140Z,0.92
2023-01-23T20:10:18.632Z,1.22
2023-01-23T20:12:51.699Z,1.42
2023-01-23T20:15:21.611Z,1.17
2023-01-23T20:17:48.266Z,1.42
2023-01-23T20:20:15.291Z,1.49
2023-01-23T20:22:42.889Z,1.60
2023-01-23T20:25:14.442Z,1.83
2023-01-23T20:27:41.546Z,2.00
2023-01-23T20:30:12.868Z,2.11
2023-01-23T20:32:39.420Z,2.39
2023-01-23T20:35:06.066Z,2.45
2023-01-23T20:37:32.649Z,2.55
2023-01-23T20:39:59.109Z,2.55
2023-01-23T20:42:25.518Z,2.58
2023-01-23T20:44:51.898Z,2.61
2023-01-23T20:47:18.514Z,2.71
2023-01-23T20:49:44.861Z,2.80
2023-01-23T20:52:29.937Z,2.86
2023-01-23T20:54:56.579Z,2.86
2023-01-23T20:57:23.181Z,2.83
2023-01-23T20:59:49.575Z,2.88
2023-01-23T21:02:25.592Z,2.68
2023-01-23T21:04:53.131Z,2.77
2023-01-23T21:07:22.512Z,2.71
2023-01-23T21:09:49.175Z,2.75
2023-01-23T21:12:15.632Z,2.97
2023-01-23T21:14:42.091Z,3.00
2023-01-23T21:17:09.669Z,3.06
2023-01-23T21:19:38.832Z,3.00
2023-01-23T21:22:06.474Z,3.08
2023-01-23T21:24:36.735Z,3.20
2023-01-23T21:27:04.960Z,3.06
2023-01-23T21:29:32.555Z,3.18
2023-01-23T21:31:59.457Z,3.22
2023-01-23T21:34:26.223Z,3.17
2023-01-23T21:36:53.127Z,3.26
2023-01-23T21:39:19.968Z,3.30
2023-01-23T21:41:46.448Z,3.32
2023-01-23T21:44:13.166Z,3.42
2023-01-23T21:46:39.689Z,3.39
2023-01-23T21:49:06.128Z,3.68
2023-01-23T21:51:32.655Z,3.56
2023-01-23T21:53:59.113Z,3.38
2023-01-23T21:56:25.752Z,3.45
2023-01-23T21:58:53.011Z,3.56
2023-01-23T22:01:41.941Z,3.43
2023-01-23T22:04:10.374Z,3.43
2023-01-23T22:06:38.541Z,3.50
2023-01-23T22:09:06.672Z,3.35
2023-01-23T22:11:33.692Z,3.35
2023-01-23T22:14:00.478Z,3.53
2023-01-23T22:16:46.423Z,3.38
2023-01-23T22:19:19.223Z,3.60
2023-01-23T22:21:46.584Z,3.54
2023-01-23T22:24:13.649Z,3.47
2023-01-23T22:26:40.171Z,3.47
2023-01-23T22:29:06.973Z,3.30
2023-01-23T22:31:33.729Z,3.36
2023-01-23T22:34:00.181Z,3.42
2023-01-23T22:36:26.550Z,3.23
2023-01-23T22:38:54.212Z,3.09
2023-01-23T22:41:21.904Z,3.28
2023-01-23T22:43:53.196Z,3.33
2023-01-23T22:46:19.637Z,3.23
2023-01-23T22:48:46.118Z,3.23
2023-01-23T22:51:24.753Z,3.13
2023-01-23T22:53:52.783Z,3.25
2023-01-23T22:56:19.312Z,3.11
2023-01-23T22:58:46.787Z,3.22
2023-01-23T23:01:13.451Z,3.22
2023-01-23T23:03:40.565Z,3.26
2023-01-23T23:06:08.982Z,3.22
2023-01-23T23:08:36.149Z,3.22
2023-01-23T23:11:11.052Z,3.24
2023-01-23T23:13:39.556Z,3.28
2023-01-23T23:16:18.243Z,3.35
2023-01-23T23:18:46.466Z,3.15
2023-01-23T23:21:14.940Z,3.27
2023-01-23T23:23:41.544Z,3.27
2023-01-23T23:26:10.070Z,3.38
2023-01-23T23:28:37.402Z,3.32
2023-01-23T23:31:04.280Z,3.28
2023-01-23T23:33:30.901Z,3.60
2023-01-23T23:35:57.429Z,3.75
2023-01-23T23:38:23.993Z,3.55
2023-01-23T23:40:55.373Z,3.78
2023-01-23T23:43:21.823Z,3.72
2023-01-23T23:45:56.577Z,3.74
2023-01-23T23:48:26.448Z,3.71
2023-01-23T23:50:53.194Z,3.66
2023-01-23T23:53:20.058Z,3.42
2023-01-23T23:55:46.700Z,3.27
2023-01-23T23:58:13.168Z,3.51
